Terminal Aerodrome Forecast
Issued by NWS

Home | Current Version | Previous Version | Text Only | Print | Product List | Glossary On
Versions: 1 2 3 4 5 6 7 8 9 10 11 12 13 14
329
FTUS46 KSEW 241120
TAFHQM
TAF
KHQM 241120Z 2412/2512 29004KT 5SM BR OVC008
     FM241600 23006KT P6SM BKN030
     FM242000 24012KT P6SM SCT040
     FM250300 26008KT P6SM BKN020 OVC040
     FM250900 25006KT P6SM OVC015=

USA.gov is the U.S. government's official web portal to all federal, state and local government web resources and services.